Accueil
METAR-TAF:

METAR-TAF

Aéroports :

Cognac, France

Base aérienne 709 Cognac-Châteaubernard

latitude: 45-40N, longitude: 000-19W, altitude: 30 m

Observation

Le bulletin a été fait il y a 18 minutes, à 06:30 UTC
Vent 3 kt de sud/sud-est
Température 17°C
Humidité 72%
Pression 1015 hPa
Visibilité 10 km ou plus
pas de nuages en-dessous de 1500 mètres et pas de cumulonimbus.

METAR: LFBG 220630Z AUTO 15003KT CAVOK 17/12 Q1015

Heure: 08:48 (06:48 UTC)

Prévision

Le bulletin a été fait il y a 22 heures et 48 minutes, à 08:00 UTC
Prévision valable du 20 à 09 UTC au 21 à 09 UTC
Vent 8 kt de est/sud-est
Visibilité 10 km ou plus
pas de nuages en-dessous de 1500 mètres et pas de cumulonimbus.

TAF: LFBG 200800Z 2009/2109 12008KT CAVOK

Observations et prévisions météorologiques de plus de 4000 aéroports (messages METAR et TAF).

Les stations disponibles sont représentées par des disques jaunes et rouges sur la carte.

Passer la souris dessus pour voir le nom de la station.

Cliquer dessus pour voir les observations et prévisions météorologiques.

Pour changer de carte: cliquez sur les boutons verts avec une croix noire pour zoomer, sur le bouton vert avec un tiret pour effectuer un zoom arrière, ou sur les flèches vertes pour les cartes adjacentes.


METAR-TAF: